createdAt,value
2023-04-18T00:00:36.828Z,12.95
2023-04-18T00:03:04.783Z,13.43
2023-04-18T00:05:32.205Z,13.05
2023-04-18T00:07:59.324Z,13.10
2023-04-18T00:10:26.412Z,13.25
2023-04-18T00:12:53.498Z,13.63
2023-04-18T00:15:20.616Z,13.30
2023-04-18T00:17:48.193Z,13.90
2023-04-18T00:20:15.418Z,15.20
2023-04-18T00:22:43.040Z,14.23
2023-04-18T00:25:11.011Z,12.98
2023-04-18T00:27:41.639Z,13.35
2023-04-18T00:30:09.244Z,13.82
2023-04-18T00:32:36.324Z,13.98
2023-04-18T00:35:04.056Z,13.18
2023-04-18T00:37:31.148Z,14.13
2023-04-18T00:39:58.244Z,13.67
2023-04-18T00:42:29.329Z,14.02
2023-04-18T00:44:56.485Z,14.52
2023-04-18T00:47:23.617Z,16.58
2023-04-18T00:49:50.793Z,16.75
2023-04-18T00:52:18.401Z,17.33
2023-04-18T00:54:45.609Z,17.05
2023-04-18T00:57:13.094Z,18.58
2023-04-18T00:59:40.229Z,18.98
2023-04-18T01:02:07.368Z,19.15
2023-04-18T01:04:34.556Z,17.92
2023-04-18T01:07:02.245Z,17.80
2023-04-18T01:09:29.370Z,20.55
2023-04-18T01:11:56.475Z,20.73
2023-04-18T01:14:23.998Z,22.83
2023-04-18T01:16:51.124Z,23.65
2023-04-18T01:19:18.329Z,24.70
2023-04-18T01:21:45.467Z,24.17
2023-04-18T01:24:16.301Z,23.88
2023-04-18T01:26:44.689Z,23.65
2023-04-18T01:29:11.799Z,25.58
2023-04-18T01:31:39.253Z,24.25
2023-04-18T01:34:06.494Z,24.90
2023-04-18T01:36:33.701Z,25.15
2023-04-18T01:39:01.036Z,25.05
2023-04-18T01:41:29.781Z,26.70
2023-04-18T01:43:56.906Z,27.63
2023-04-18T01:46:24.051Z,26.55
2023-04-18T01:48:51.155Z,27.92
2023-04-18T01:51:18.308Z,27.33
2023-04-18T01:53:45.412Z,26.48
2023-04-18T01:56:12.615Z,27.50
2023-04-18T01:58:41.536Z,29.07
2023-04-18T02:01:08.781Z,28.13
2023-04-18T02:03:36.036Z,27.92
2023-04-18T02:06:04.240Z,30.35
2023-04-18T02:08:32.972Z,29.63
2023-04-18T02:11:01.354Z,29.17
2023-04-18T02:13:29.033Z,29.80
2023-04-18T02:15:56.150Z,29.20
2023-04-18T02:18:24.856Z,29.63
2023-04-18T02:20:52.241Z,28.95
2023-04-18T02:23:19.452Z,27.25
2023-04-18T02:25:47.007Z,26.85
2023-04-18T02:28:14.177Z,26.02
2023-04-18T02:30:41.289Z,25.10
2023-04-18T02:33:08.429Z,26.98
2023-04-18T02:35:35.898Z,25.75
2023-04-18T02:38:03.003Z,27.07
2023-04-18T02:40:30.177Z,25.98
2023-04-18T02:42:58.090Z,26.77
2023-04-18T02:45:25.214Z,25.45
2023-04-18T02:47:56.218Z,24.40
2023-04-18T02:50:23.991Z,24.58
2023-04-18T02:52:51.125Z,23.52
2023-04-18T02:55:18.261Z,23.35
2023-04-18T02:57:45.412Z,22.08
2023-04-18T03:00:14.590Z,22.05
2023-04-18T03:02:41.864Z,21.17
2023-04-18T03:05:09.213Z,21.33
2023-04-18T03:07:36.323Z,19.37
2023-04-18T03:10:03.560Z,20.17
2023-04-18T03:12:30.825Z,18.88
2023-04-18T03:14:57.933Z,19.40
2023-04-18T03:17:25.238Z,19.65
2023-04-18T03:19:52.381Z,20.55
2023-04-18T03:22:19.539Z,19.88
2023-04-18T03:24:46.616Z,21.20
2023-04-18T03:27:13.763Z,19.23
2023-04-18T03:29:40.926Z,19.47
2023-04-18T03:32:08.069Z,19.58
2023-04-18T03:34:35.353Z,18.98
2023-04-18T03:37:02.601Z,18.27
2023-04-18T03:39:29.670Z,20.90
2023-04-18T03:41:56.779Z,20.77
2023-04-18T03:44:23.867Z,20.13
2023-04-18T03:46:50.960Z,19.13
2023-04-18T03:49:18.039Z,20.20
2023-04-18T03:51:47.643Z,19.45
2023-04-18T03:54:15.269Z,19.77
2023-04-18T03:56:42.554Z,21.10
2023-04-18T03:59:09.655Z,18.33
2023-04-18T04:01:37.152Z,20.13
2023-04-18T04:04:04.770Z,19.63
2023-04-18T04:06:32.201Z,20.67
2023-04-18T04:08:59.299Z,19.65
2023-04-18T04:11:26.736Z,20.42
2023-04-18T04:13:53.859Z,18.27
2023-04-18T04:16:21.171Z,18.65
2023-04-18T04:18:48.261Z,17.90
2023-04-18T04:21:15.718Z,18.15
2023-04-18T04:23:42.896Z,19.00
2023-04-18T04:26:10.112Z,18.37
2023-04-18T04:28:37.249Z,18.65
2023-04-18T04:31:06.800Z,17.63
2023-04-18T04:33:33.892Z,16.90
2023-04-18T04:36:01.287Z,17.15
2023-04-18T04:38:30.703Z,16.93
2023-04-18T04:40:58.238Z,16.77
2023-04-18T04:43:25.961Z,15.88
2023-04-18T04:45:53.242Z,15.32
2023-04-18T04:48:21.944Z,14.65
2023-04-18T04:50:56.068Z,14.88
2023-04-18T04:53:23.564Z,13.80
2023-04-18T04:55:50.873Z,15.13
2023-04-18T04:58:17.995Z,14.88
2023-04-18T05:00:45.065Z,14.45
2023-04-18T05:03:12.365Z,15.50
2023-04-18T05:05:39.619Z,14.00
2023-04-18T05:08:06.854Z,13.47
2023-04-18T05:10:36.987Z,13.48
2023-04-18T05:13:04.357Z,13.15
2023-04-18T05:15:31.714Z,13.30
2023-04-18T05:17:58.947Z,13.45
2023-04-18T05:20:26.058Z,11.63
2023-04-18T05:22:53.151Z,11.70
2023-04-18T05:25:20.367Z,12.13
2023-04-18T05:27:47.497Z,12.15
2023-04-18T05:30:14.653Z,12.13
2023-04-18T05:32:41.848Z,12.30
2023-04-18T05:35:09.187Z,11.80
2023-04-18T05:37:36.419Z,11.67
2023-04-18T05:40:04.931Z,11.27
2023-04-18T05:42:32.076Z,11.10
2023-04-18T05:44:59.210Z,11.10
2023-04-18T05:47:28.393Z,11.43
2023-04-18T05:49:55.885Z,13.60
2023-04-18T05:52:23.064Z,13.43
2023-04-18T05:54:50.794Z,11.98
2023-04-18T05:57:17.907Z,11.50
2023-04-18T05:59:44.994Z,9.60
2023-04-18T06:02:13.637Z,9.65
2023-04-18T06:04:41.990Z,8.93
2023-04-18T06:07:09.492Z,9.75
2023-04-18T06:09:36.760Z,9.85
2023-04-18T06:12:04.019Z,9.27
2023-04-18T06:14:31.140Z,9.70
2023-04-18T06:16:58.279Z,9.20
2023-04-18T06:19:25.410Z,8.80
2023-04-18T06:21:53.122Z,9.23
2023-04-18T06:24:20.287Z,8.05
2023-04-18T06:26:47.461Z,8.60
2023-04-18T06:29:14.610Z,10.23
2023-04-18T06:31:42.193Z,9.93
2023-04-18T06:34:09.485Z,8.90
2023-04-18T06:36:36.568Z,10.43
2023-04-18T06:39:03.854Z,9.13
2023-04-18T06:41:31.027Z,9.27
2023-04-18T06:44:02.834Z,8.50
2023-04-18T06:46:31.028Z,10.35
2023-04-18T06:48:58.123Z,9.65
2023-04-18T06:51:25.252Z,9.65
2023-04-18T06:53:55.152Z,9.75
2023-04-18T06:56:22.262Z,9.98
2023-04-18T06:58:52.737Z,9.38
2023-04-18T07:01:20.071Z,9.68
2023-04-18T07:03:47.315Z,9.10
2023-04-18T07:06:14.622Z,10.20
2023-04-18T07:08:41.962Z,9.45
2023-04-18T07:11:09.042Z,10.13
2023-04-18T07:13:36.155Z,10.47
2023-04-18T07:16:03.302Z,10.05
2023-04-18T07:18:37.532Z,10.10
2023-04-18T07:21:07.545Z,9.80
2023-04-18T07:23:35.038Z,9.98
2023-04-18T07:26:02.645Z,9.65
2023-04-18T07:28:29.959Z,10.18
2023-04-18T07:30:57.135Z,10.02
2023-04-18T07:33:24.515Z,9.82
2023-04-18T07:35:52.704Z,10.27
2023-04-18T07:38:19.800Z,9.30
2023-04-18T07:40:46.993Z,9.90
2023-04-18T07:43:14.129Z,9.77
2023-04-18T07:45:43.131Z,10.43
2023-04-18T07:48:11.270Z,10.18
2023-04-18T07:50:38.628Z,9.25
2023-04-18T07:53:06.112Z,10.03
2023-04-18T07:55:33.185Z,9.80
2023-04-18T07:58:00.285Z,11.05
2023-04-18T08:00:28.655Z,9.80
2023-04-18T08:02:56.391Z,9.20
2023-04-18T08:05:23.651Z,9.15
2023-04-18T08:07:51.106Z,9.63
2023-04-18T08:10:18.193Z,9.70
2023-04-18T08:12:45.525Z,9.90
2023-04-18T08:15:12.656Z,8.93
2023-04-18T08:17:39.828Z,9.13
2023-04-18T08:20:07.329Z,9.20
2023-04-18T08:22:34.566Z,9.90
2023-04-18T08:25:05.487Z,9.07
2023-04-18T08:27:32.908Z,9.77
2023-04-18T08:30:00.510Z,9.65
2023-04-18T08:32:27.717Z,9.10
2023-04-18T08:34:54.877Z,9.65
2023-04-18T08:37:21.971Z,9.07
2023-04-18T08:39:49.067Z,8.68
2023-04-18T08:42:19.139Z,8.80
2023-04-18T08:44:47.209Z,9.48
2023-04-18T08:47:14.922Z,9.13
2023-04-18T08:49:42.603Z,8.77
2023-04-18T08:52:13.797Z,9.27
2023-04-18T08:54:44.199Z,9.02
2023-04-18T08:57:12.630Z,9.13
2023-04-18T08:59:40.132Z,8.98
2023-04-18T09:02:08.833Z,8.30
2023-04-18T09:04:39.561Z,8.32
2023-04-18T09:07:07.972Z,9.38
2023-04-18T09:09:47.487Z,9.38
2023-04-18T09:12:24.202Z,9.02
2023-04-18T09:14:51.762Z,9.30
2023-04-18T09:17:31.590Z,9.40
2023-04-18T09:19:58.928Z,8.80
2023-04-18T09:22:26.378Z,9.20
2023-04-18T09:24:55.583Z,9.10
2023-04-18T09:27:22.682Z,8.88
2023-04-18T09:29:51.819Z,8.32
2023-04-18T09:32:29.465Z,9.17
2023-04-18T09:35:03.929Z,9.07
2023-04-18T09:37:31.819Z,8.60
2023-04-18T09:39:58.887Z,9.73
2023-04-18T09:42:28.671Z,9.07
2023-04-18T09:45:06.041Z,8.97
2023-04-18T09:47:37.318Z,9.82
2023-04-18T09:50:04.925Z,8.80
2023-04-18T09:52:34.499Z,9.27
2023-04-18T09:55:02.400Z,9.40
2023-04-18T09:57:30.111Z,9.05
2023-04-18T10:00:21.451Z,8.57
2023-04-18T10:03:09.770Z,8.40
2023-04-18T10:05:37.493Z,8.32
2023-04-18T10:08:04.728Z,8.98
2023-04-18T10:10:31.810Z,8.27
2023-04-18T10:12:59.182Z,9.02
2023-04-18T10:15:26.767Z,9.00
2023-04-18T10:18:04.179Z,8.75
2023-04-18T10:20:33.100Z,7.93
2023-04-18T10:23:00.465Z,8.50
2023-04-18T10:25:39.770Z,8.50
2023-04-18T10:28:07.221Z,7.72
2023-04-18T10:30:54.637Z,7.72
2023-04-18T10:33:30.446Z,8.45
2023-04-18T10:36:13.679Z,8.00
2023-04-18T10:38:48.704Z,7.95
2023-04-18T10:41:18.541Z,8.80
2023-04-18T10:44:05.396Z,7.78
2023-04-18T10:46:36.519Z,8.07
2023-04-18T10:49:19.650Z,8.02
2023-04-18T10:51:49.883Z,7.45
2023-04-18T10:54:23.212Z,6.60
2023-04-18T10:56:56.672Z,6.32
2023-04-18T10:59:25.019Z,6.78
2023-04-18T11:01:56.287Z,6.97
2023-04-18T11:04:24.247Z,6.50
2023-04-18T11:06:53.103Z,5.82
2023-04-18T11:09:20.640Z,5.30
2023-04-18T11:11:47.724Z,6.05
2023-04-18T11:14:15.062Z,5.90
2023-04-18T11:16:42.370Z,5.77
2023-04-18T11:19:19.769Z,5.55
2023-04-18T11:21:46.848Z,5.75
2023-04-18T11:24:20.954Z,5.20
2023-04-18T11:26:48.041Z,5.97
2023-04-18T11:29:15.198Z,5.43
2023-04-18T11:31:43.730Z,5.13
2023-04-18T11:34:10.869Z,5.18
2023-04-18T11:36:38.654Z,5.63
2023-04-18T11:39:06.291Z,5.35
2023-04-18T11:41:33.386Z,4.75
2023-04-18T11:44:01.332Z,4.60
2023-04-18T11:46:38.483Z,4.65
2023-04-18T11:49:06.044Z,4.50
2023-04-18T11:51:38.388Z,4.70
2023-04-18T11:54:05.586Z,4.97
2023-04-18T11:56:34.582Z,4.53
2023-04-18T11:59:09.120Z,4.50
2023-04-18T12:01:36.280Z,4.75
2023-04-18T12:04:04.128Z,4.17
2023-04-18T12:06:47.351Z,4.45
2023-04-18T12:09:15.220Z,4.57
2023-04-18T12:11:42.483Z,4.78
2023-04-18T12:14:21.791Z,4.50
2023-04-18T12:16:52.057Z,4.00
2023-04-18T12:19:20.865Z,4.15
2023-04-18T12:22:00.248Z,4.15
2023-04-18T12:24:30.038Z,3.83
2023-04-18T12:26:58.031Z,2.92
2023-04-18T12:29:25.550Z,13.60
2023-04-18T12:31:52.370Z,3.78
2023-04-18T12:34:19.203Z,3.60
2023-04-18T12:36:46.310Z,3.08
2023-04-18T12:39:13.248Z,3.60
2023-04-18T12:41:40.008Z,2.57
